Terminal Aerodrome Forecast
Issued by NWS

Home | Current Version | Previous Version | Text Only | Print | Product List | Glossary On
Versions: 1 2 3 4 5 6 7 8 9 10 11 12 13 14
000
FTUS41 KAKQ 162300
TAFPHF
TAF
KPHF 162332Z 1700/1724 03007KT P6SM SCT040 BKN100
     FM170600 05008KT P6SM BKN040 OVC070
     FM171500 08007KT P6SM BKN050=

USA.gov is the U.S. government's official web portal to all federal, state and local government web resources and services.